Grelema — 203890 — position and weather

sailwx.info

Track history (hours):
 
Tides and Currents Weather Stations Pressure Air Temp Water Temp Dewpoint Dewpoint Depression Visibility Wind Speed Wind Dir Waves Ship Positions

Grelema

Last reported at 2018-Jun-20 11:28 UTC. Time now 2018-Jun-24 14:59 UTC.
Position N 43°18' W 002°15'.

Length 11 m.

Type: Sailing vessel. MMSI: 227203890.

Date/timePositionNaut miles runAvg speedWind from/ knotsBaromVisibWave heightAir tempDewpointWater temp
2018-Jun-20 11:28N 43°18' W 002°15'1 3.2
2018-Jun-20 11:00N 43°19' W 002°16'2 3.3
2018-Jun-20 10:30N 43°21' W 002°18'1 2.7
2018-Jun-20 10:00N 43°21' W 002°19'2 3.9
2018-Jun-20 09:30N 43°20' W 002°18'2 4.1
2018-Jun-20 09:00N 43°19' W 002°15'  
2018-Jun-14 15:13N 43°18' W 002°15'0 2.1
2018-Jun-14 15:00N 43°19' W 002°15'1 3.0
2018-Jun-14 14:30N 43°19' W 002°13'2 3.2
2018-Jun-14 14:00N 43°20' W 002°11'2 3.9
2018-Jun-14 13:30N 43°19' W 002°13'1 2.0
2018-Jun-14 13:00N 43°19' W 002°15'  
Track history (hours):
 
Tides and Currents Weather Stations Pressure Air Temp Water Temp Dewpoint Dewpoint Depression Visibility Wind Speed Wind Dir Waves Ship Positions

Grelema

Last reported at 2018-Jun-20 11:28 UTC. Time now 2018-Jun-24 14:59 UTC.
Position N 43°18' W 002°15'.

Length 11 m.

Type: Sailing vessel. MMSI: 227203890.

Date/timePositionNaut miles runAvg speedWind from/ knotsBaromVisibWave heightAir tempDewpointWater temp
2018-Jun-20 11:28N 43°18' W 002°15'1 3.2
2018-Jun-20 11:00N 43°19' W 002°16'2 3.3
2018-Jun-20 10:30N 43°21' W 002°18'1 2.7
2018-Jun-20 10:00N 43°21' W 002°19'2 3.9
2018-Jun-20 09:30N 43°20' W 002°18'2 4.1
2018-Jun-20 09:00N 43°19' W 002°15'  
2018-Jun-14 15:13N 43°18' W 002°15'0 2.1
2018-Jun-14 15:00N 43°19' W 002°15'1 3.0
2018-Jun-14 14:30N 43°19' W 002°13'2 3.2
2018-Jun-14 14:00N 43°20' W 002°11'2 3.9
2018-Jun-14 13:30N 43°19' W 002°13'1 2.0
2018-Jun-14 13:00N 43°19' W 002°15'  

Dump ship's entire track history